createdAt,value
2017-10-01T00:01:27.452Z,7.03
2017-10-01T00:03:54.899Z,3.50
2017-10-01T00:06:22.374Z,5.13
2017-10-01T00:08:49.824Z,4.57
2017-10-01T00:11:17.289Z,4.07
2017-10-01T00:13:44.738Z,6.30
2017-10-01T00:16:12.207Z,4.27
2017-10-01T00:18:39.675Z,8.50
2017-10-01T00:21:07.163Z,6.57
2017-10-01T00:23:34.626Z,6.50
2017-10-01T00:26:02.102Z,3.60
2017-10-01T00:28:29.559Z,4.83
2017-10-01T00:30:57.031Z,5.43
2017-10-01T00:33:24.527Z,8.37
2017-10-01T00:35:51.995Z,6.00
2017-10-01T00:38:19.443Z,6.87
2017-10-01T00:40:46.891Z,3.70
2017-10-01T00:43:14.383Z,33.17
2017-10-01T00:45:41.836Z,7.47
2017-10-01T00:48:09.363Z,7.03
2017-10-01T00:50:36.936Z,4.60
2017-10-01T00:53:04.401Z,4.77
2017-10-01T00:55:31.947Z,5.20
2017-10-01T00:57:59.410Z,4.63
2017-10-01T01:00:26.952Z,9.10
2017-10-01T01:02:54.418Z,5.00
2017-10-01T01:05:21.870Z,8.20
2017-10-01T01:07:49.344Z,9.00
2017-10-01T01:10:16.786Z,10.67
2017-10-01T01:12:44.235Z,5.73
2017-10-01T01:15:11.701Z,4.83
2017-10-01T01:17:39.147Z,4.20
2017-10-01T01:20:07.356Z,5.43
2017-10-01T01:22:34.811Z,4.80
2017-10-01T01:25:02.270Z,3.60
2017-10-01T01:27:29.720Z,5.20
2017-10-01T01:29:57.187Z,3.50
2017-10-01T01:32:24.639Z,5.60
2017-10-01T01:34:52.167Z,15.80
2017-10-01T01:37:19.631Z,15.53
2017-10-01T01:39:47.100Z,5.43
2017-10-01T01:42:14.543Z,3.20
2017-10-01T01:44:42.024Z,3.23
2017-10-01T01:47:09.473Z,3.73
2017-10-01T01:49:36.910Z,9.17
2017-10-01T01:52:04.374Z,5.23
2017-10-01T01:54:31.831Z,5.23
2017-10-01T01:56:59.318Z,7.40
2017-10-01T01:59:26.769Z,5.77
2017-10-01T02:01:54.246Z,8.70
2017-10-01T02:04:21.734Z,8.50
2017-10-01T02:06:49.319Z,7.13
2017-10-01T02:09:16.767Z,5.77
2017-10-01T02:11:44.239Z,9.90
2017-10-01T02:14:11.699Z,5.00
2017-10-01T02:16:39.229Z,5.33
2017-10-01T02:19:06.687Z,3.67
2017-10-01T02:21:34.160Z,4.20
2017-10-01T02:24:01.709Z,14.43
2017-10-01T02:26:29.170Z,4.30
2017-10-01T02:28:56.614Z,5.93
2017-10-01T02:31:24.063Z,4.10
2017-10-01T02:33:51.524Z,6.77
2017-10-01T02:36:18.974Z,5.00
2017-10-01T02:38:46.435Z,6.30
2017-10-01T02:41:13.880Z,4.43
2017-10-01T02:43:41.338Z,3.07
2017-10-01T02:46:08.787Z,4.70
2017-10-01T02:48:36.239Z,4.23
2017-10-01T02:51:03.681Z,5.40
2017-10-01T02:53:31.159Z,4.43
2017-10-01T02:55:58.631Z,4.87
2017-10-01T02:58:26.091Z,10.97
2017-10-01T03:00:53.544Z,5.70
2017-10-01T03:03:21.103Z,8.67
2017-10-01T03:05:48.537Z,4.10
2017-10-01T03:08:16.006Z,6.57
2017-10-01T03:10:43.445Z,5.63
2017-10-01T03:13:10.932Z,3.67
2017-10-01T03:15:38.493Z,3.70
2017-10-01T03:18:05.936Z,4.70
2017-10-01T03:20:33.519Z,4.00
2017-10-01T03:23:00.970Z,3.53
2017-10-01T03:25:28.431Z,4.60
2017-10-01T03:27:55.876Z,6.53
2017-10-01T03:30:23.436Z,5.20
2017-10-01T03:32:50.994Z,4.70
2017-10-01T03:35:18.463Z,8.40
2017-10-01T03:37:45.907Z,7.80
2017-10-01T03:40:13.466Z,6.17
2017-10-01T03:42:41.034Z,35.30
2017-10-01T03:45:08.516Z,27.20
2017-10-01T03:47:35.979Z,25.60
2017-10-01T03:50:03.422Z,15.63
2017-10-01T03:52:30.954Z,14.20
2017-10-01T03:54:58.399Z,24.83
2017-10-01T03:57:35.799Z,46.97
2017-10-01T04:00:03.252Z,44.23
2017-10-01T04:02:30.718Z,41.37
2017-10-01T04:04:58.163Z,51.33
2017-10-01T04:07:25.623Z,33.20
2017-10-01T04:09:53.099Z,35.10
2017-10-01T04:12:20.641Z,39.73
2017-10-01T04:14:48.083Z,20.90
2017-10-01T04:17:15.553Z,38.37
2017-10-01T04:19:42.991Z,45.90
2017-10-01T04:22:10.465Z,29.93
2017-10-01T04:24:38.027Z,32.13
2017-10-01T04:27:05.481Z,55.10
2017-10-01T04:29:32.976Z,34.30
2017-10-01T04:32:00.431Z,43.67
2017-10-01T04:34:28.014Z,38.37
2017-10-01T04:36:55.460Z,29.27
2017-10-01T04:39:22.931Z,49.80
2017-10-01T04:41:50.373Z,25.53
2017-10-01T04:44:17.843Z,44.13
2017-10-01T04:46:45.337Z,41.33
2017-10-01T04:49:12.808Z,23.30
2017-10-01T04:51:40.317Z,42.17
2017-10-01T04:54:07.805Z,40.60
2017-10-01T04:56:35.307Z,48.57
2017-10-01T04:59:02.845Z,70.30
2017-10-01T05:01:30.383Z,62.70
2017-10-01T05:03:57.842Z,17.13
2017-10-01T05:06:25.296Z,27.50
2017-10-01T05:08:52.852Z,11.43
2017-10-01T05:11:20.303Z,25.50
2017-10-01T05:13:47.769Z,60.43
2017-10-01T05:16:15.292Z,22.20
2017-10-01T05:18:42.743Z,7.30
2017-10-01T05:21:10.230Z,13.90
2017-10-01T05:23:37.676Z,9.37
2017-10-01T05:26:05.155Z,8.63
2017-10-01T05:28:32.613Z,8.77
2017-10-01T05:31:00.087Z,6.60
2017-10-01T05:33:27.543Z,12.43
2017-10-01T05:35:55.033Z,7.73
2017-10-01T05:38:22.555Z,22.10
2017-10-01T05:40:49.999Z,8.67
2017-10-01T05:43:17.552Z,8.97
2017-10-01T05:45:44.995Z,8.17
2017-10-01T05:48:12.467Z,6.57
2017-10-01T05:50:39.906Z,7.40
2017-10-01T05:53:07.391Z,5.60
2017-10-01T05:55:34.933Z,5.90
2017-10-01T05:58:02.395Z,5.30
2017-10-01T06:00:29.844Z,5.93
2017-10-01T06:02:57.320Z,14.73
2017-10-01T06:05:24.774Z,7.87
2017-10-01T06:07:52.338Z,4.63
2017-10-01T06:10:19.791Z,5.20
2017-10-01T06:12:47.351Z,5.33
2017-10-01T06:15:14.811Z,4.50
2017-10-01T06:17:42.266Z,5.10
2017-10-01T06:20:09.711Z,5.00
2017-10-01T06:22:37.211Z,4.20
2017-10-01T06:25:04.677Z,4.00
2017-10-01T06:27:32.179Z,3.10
2017-10-01T06:29:59.618Z,4.03
2017-10-01T06:32:27.077Z,4.07
2017-10-01T06:34:54.553Z,4.10
2017-10-01T06:37:22.005Z,4.30
2017-10-01T06:39:49.599Z,3.00
2017-10-01T06:42:17.047Z,3.17
2017-10-01T06:44:44.510Z,4.17
2017-10-01T06:47:11.967Z,3.93
2017-10-01T06:49:39.442Z,2.90
2017-10-01T06:52:06.898Z,3.80
2017-10-01T06:54:34.405Z,4.17
2017-10-01T06:57:01.851Z,4.60
2017-10-01T06:59:29.318Z,3.33
2017-10-01T07:01:56.758Z,3.90
2017-10-01T07:04:24.336Z,4.40
2017-10-01T07:06:51.782Z,4.73
2017-10-01T07:09:19.300Z,3.43
2017-10-01T07:11:46.788Z,3.97
2017-10-01T07:14:14.272Z,3.90
2017-10-01T07:16:41.772Z,5.53
2017-10-01T07:19:09.226Z,4.20
2017-10-01T07:21:36.692Z,4.53
2017-10-01T07:24:04.194Z,4.83
2017-10-01T07:26:31.753Z,4.33
2017-10-01T07:28:59.194Z,5.00
2017-10-01T07:31:26.778Z,4.77
2017-10-01T07:33:54.327Z,4.20
2017-10-01T07:36:21.874Z,5.13
2017-10-01T07:38:49.337Z,5.23
2017-10-01T07:41:16.803Z,5.10
2017-10-01T07:43:44.243Z,4.40
2017-10-01T07:46:11.703Z,4.57
2017-10-01T07:48:39.146Z,4.57
2017-10-01T07:51:06.617Z,4.60
2017-10-01T07:53:34.156Z,5.20
2017-10-01T07:56:01.740Z,25.77
2017-10-01T07:58:29.327Z,5.00
2017-10-01T08:00:56.856Z,5.30
2017-10-01T08:03:24.304Z,8.90
2017-10-01T08:05:51.772Z,4.80
2017-10-01T08:08:19.335Z,5.40
2017-10-01T08:10:47.208Z,5.07
2017-10-01T08:13:14.655Z,6.40
2017-10-01T08:15:42.222Z,8.00
2017-10-01T08:18:09.698Z,9.73
2017-10-01T08:20:37.230Z,7.60
2017-10-01T08:23:04.711Z,5.63
2017-10-01T08:25:32.171Z,6.33
2017-10-01T08:27:59.660Z,9.10
2017-10-01T08:30:27.107Z,6.87
2017-10-01T08:32:54.566Z,6.57
2017-10-01T08:35:22.018Z,12.07
2017-10-01T08:37:49.494Z,9.27
2017-10-01T08:40:16.980Z,9.50
2017-10-01T08:42:44.462Z,12.80
2017-10-01T08:45:11.987Z,8.40
2017-10-01T08:47:39.464Z,14.67
2017-10-01T08:50:07.652Z,5.97
2017-10-01T08:52:35.151Z,9.43
2017-10-01T08:55:02.604Z,8.03
2017-10-01T08:57:30.099Z,12.17
2017-10-01T08:59:57.551Z,12.83
2017-10-01T09:02:25.114Z,14.93
2017-10-01T09:04:52.582Z,17.40
2017-10-01T09:07:20.055Z,17.50
2017-10-01T09:09:47.585Z,19.23
2017-10-01T09:12:15.066Z,17.63
2017-10-01T09:14:42.624Z,14.67
2017-10-01T09:17:10.112Z,14.43
2017-10-01T09:19:37.591Z,15.73
2017-10-01T09:22:05.067Z,12.20
2017-10-01T09:24:32.583Z,13.80
2017-10-01T09:27:00.071Z,14.70
2017-10-01T09:29:27.534Z,15.63
2017-10-01T09:31:54.987Z,14.60
2017-10-01T09:34:22.558Z,19.60
2017-10-01T09:36:50.117Z,27.63
2017-10-01T09:39:17.586Z,18.40
2017-10-01T09:41:45.039Z,38.37
2017-10-01T09:44:12.547Z,22.70
2017-10-01T09:46:40.007Z,11.97
2017-10-01T09:49:07.480Z,16.13
2017-10-01T09:51:34.935Z,14.10
2017-10-01T09:54:02.409Z,10.43
2017-10-01T09:56:29.869Z,15.67
2017-10-01T09:58:57.340Z,16.87
2017-10-01T10:01:24.798Z,12.17
2017-10-01T10:03:52.275Z,13.07
2017-10-01T10:06:19.737Z,17.60
2017-10-01T10:08:47.207Z,13.97
2017-10-01T10:11:14.661Z,14.50
2017-10-01T10:13:42.168Z,18.13
2017-10-01T10:16:09.615Z,16.33
2017-10-01T10:18:37.092Z,21.10
2017-10-01T10:21:04.655Z,16.47
2017-10-01T10:23:32.139Z,13.80
2017-10-01T10:25:59.655Z,10.97
2017-10-01T10:28:27.135Z,11.47
2017-10-01T10:30:54.620Z,21.37
2017-10-01T10:33:22.126Z,9.77
2017-10-01T10:35:49.566Z,9.07
2017-10-01T10:38:17.070Z,11.80
2017-10-01T10:40:44.517Z,9.77
2017-10-01T10:43:11.995Z,14.50
2017-10-01T10:45:39.443Z,15.00
2017-10-01T10:48:06.920Z,12.70
2017-10-01T10:50:34.379Z,15.00
2017-10-01T10:53:01.822Z,19.57
2017-10-01T10:55:29.296Z,10.83
2017-10-01T10:57:56.745Z,11.40
2017-10-01T11:00:24.215Z,18.60
2017-10-01T11:02:51.667Z,13.87
2017-10-01T11:05:19.166Z,15.13
2017-10-01T11:07:46.724Z,18.53
2017-10-01T11:10:14.292Z,15.57
2017-10-01T11:12:41.749Z,10.23
2017-10-01T11:15:09.222Z,15.60
2017-10-01T11:17:36.682Z,11.87
2017-10-01T11:20:04.166Z,10.83
2017-10-01T11:22:31.615Z,11.97
2017-10-01T11:24:59.087Z,16.53
2017-10-01T11:27:26.539Z,13.60
2017-10-01T11:29:54.023Z,9.53
2017-10-01T11:32:21.481Z,16.47
2017-10-01T11:34:49.056Z,13.13
2017-10-01T11:37:16.510Z,17.63
2017-10-01T11:39:43.983Z,17.13
2017-10-01T11:42:11.449Z,20.33
2017-10-01T11:44:38.954Z,11.37
2017-10-01T11:47:06.407Z,16.53
2017-10-01T11:49:33.894Z,19.93
2017-10-01T11:52:01.359Z,16.30
2017-10-01T11:54:28.847Z,15.13
2017-10-01T11:56:56.312Z,17.00
2017-10-01T11:59:23.792Z,28.47
2017-10-01T12:01:51.238Z,13.00
2017-10-01T12:04:18.687Z,11.83
2017-10-01T12:06:46.164Z,12.00
2017-10-01T12:09:13.620Z,18.20
2017-10-01T12:11:41.097Z,12.80
2017-10-01T12:14:08.547Z,11.90
2017-10-01T12:16:36.035Z,15.63
2017-10-01T12:19:03.483Z,8.40
2017-10-01T12:21:30.942Z,14.17
2017-10-01T12:23:58.497Z,11.20
2017-10-01T12:26:25.975Z,11.73
2017-10-01T12:28:53.434Z,18.67
2017-10-01T12:31:20.902Z,14.00
2017-10-01T12:33:48.347Z,21.87
2017-10-01T12:36:15.821Z,13.13
2017-10-01T12:38:43.280Z,11.93
2017-10-01T12:41:10.747Z,11.17
2017-10-01T12:43:38.190Z,15.43
2017-10-01T12:46:05.680Z,14.23
2017-10-01T12:48:33.154Z,19.50
2017-10-01T12:51:00.628Z,13.93
2017-10-01T12:53:28.096Z,13.03
2017-10-01T12:55:55.584Z,12.17
2017-10-01T12:58:23.035Z,19.77
2017-10-01T13:00:55.458Z,14.20
2017-10-01T13:03:22.922Z,11.90
2017-10-01T13:05:50.463Z,12.80
2017-10-01T13:08:17.914Z,14.67
2017-10-01T13:10:45.367Z,9.40
2017-10-01T13:13:12.851Z,11.77
2017-10-01T13:15:40.306Z,11.23
2017-10-01T13:18:07.860Z,16.50
2017-10-01T13:20:35.412Z,13.93
2017-10-01T13:23:02.874Z,9.73
2017-10-01T13:25:30.331Z,13.33
2017-10-01T13:27:57.804Z,8.03
2017-10-01T13:30:25.281Z,10.77
2017-10-01T13:32:52.808Z,8.17
2017-10-01T13:35:20.256Z,14.57
2017-10-01T13:37:47.727Z,16.83
2017-10-01T13:40:15.195Z,13.30
2017-10-01T13:42:42.725Z,13.53
2017-10-01T13:45:10.162Z,9.83
2017-10-01T13:47:37.632Z,12.87
2017-10-01T13:50:05.314Z,6.23
2017-10-01T13:52:32.784Z,10.17
2017-10-01T13:55:00.330Z,9.40
2017-10-01T13:57:27.800Z,8.43
2017-10-01T13:59:55.323Z,11.40
2017-10-01T14:02:22.783Z,9.17
2017-10-01T14:04:50.222Z,11.60
2017-10-01T14:07:17.686Z,9.87
2017-10-01T14:09:45.147Z,8.37
2017-10-01T14:12:12.716Z,10.90
2017-10-01T14:14:40.167Z,8.80
2017-10-01T14:17:07.641Z,9.97
2017-10-01T14:19:35.186Z,8.63
2017-10-01T14:22:02.739Z,14.43
2017-10-01T14:24:30.215Z,6.07
2017-10-01T14:26:57.679Z,15.03
2017-10-01T14:29:25.169Z,5.13
2017-10-01T14:31:52.666Z,8.33
2017-10-01T14:34:20.123Z,5.37
2017-10-01T14:36:47.646Z,13.70
2017-10-01T14:39:15.146Z,7.23
2017-10-01T14:41:42.597Z,6.40
2017-10-01T14:44:10.054Z,5.07
2017-10-01T14:46:37.495Z,9.03
2017-10-01T14:49:04.969Z,8.00
2017-10-01T14:51:32.419Z,7.87
2017-10-01T14:53:59.897Z,7.13
2017-10-01T14:56:27.352Z,6.47
2017-10-01T14:58:54.824Z,6.27
2017-10-01T15:01:22.291Z,5.40
2017-10-01T15:03:49.775Z,8.33
2017-10-01T15:06:17.231Z,16.27
2017-10-01T15:08:44.695Z,4.47
2017-10-01T15:11:12.145Z,6.70
2017-10-01T15:13:39.648Z,4.47
2017-10-01T15:16:07.202Z,5.23
2017-10-01T15:18:34.682Z,7.80
2017-10-01T15:21:02.129Z,3.00
2017-10-01T15:23:29.590Z,7.17
2017-10-01T15:25:57.036Z,3.13
2017-10-01T15:28:24.507Z,6.00
2017-10-01T15:30:51.954Z,7.67
2017-10-01T15:33:19.499Z,9.67
2017-10-01T15:35:46.972Z,7.20
2017-10-01T15:38:14.439Z,5.07
2017-10-01T15:40:41.916Z,7.10
2017-10-01T15:43:09.419Z,5.27
2017-10-01T15:45:36.857Z,5.30
2017-10-01T15:48:04.327Z,4.40
2017-10-01T15:50:31.793Z,7.73
2017-10-01T15:52:59.263Z,6.60
2017-10-01T15:55:26.832Z,3.57
2017-10-01T15:57:54.298Z,3.17
2017-10-01T16:00:21.747Z,3.57
2017-10-01T16:02:49.952Z,7.33
2017-10-01T16:05:18.135Z,4.30
2017-10-01T16:07:45.887Z,4.90
2017-10-01T16:10:13.855Z,5.90
2017-10-01T16:12:41.621Z,5.93
2017-10-01T16:15:09.567Z,5.27
2017-10-01T16:17:37.335Z,7.13
2017-10-01T16:20:05.530Z,5.83
2017-10-01T16:22:33.389Z,4.17
2017-10-01T16:25:00.910Z,3.93
2017-10-01T16:27:28.354Z,7.93
2017-10-01T16:29:55.831Z,5.13
2017-10-01T16:32:23.275Z,3.17
2017-10-01T16:34:50.750Z,6.00
2017-10-01T16:37:18.203Z,5.53
2017-10-01T16:39:45.656Z,8.40
2017-10-01T16:42:16.370Z,7.40
2017-10-01T16:44:43.814Z,8.03
2017-10-01T16:47:11.305Z,5.20
2017-10-01T16:49:38.862Z,4.37
2017-10-01T16:52:06.410Z,5.00
2017-10-01T16:54:33.904Z,7.03
2017-10-01T16:57:01.408Z,4.63
2017-10-01T16:59:28.850Z,4.60
2017-10-01T17:01:56.428Z,7.57
2017-10-01T17:04:23.882Z,5.63
2017-10-01T17:06:51.391Z,6.13
2017-10-01T17:09:18.844Z,6.70
2017-10-01T17:11:46.314Z,5.30
2017-10-01T17:14:13.767Z,9.17
2017-10-01T17:16:41.232Z,6.67
2017-10-01T17:19:08.684Z,11.53
2017-10-01T17:21:36.150Z,10.67
2017-10-01T17:24:03.648Z,9.10
2017-10-01T17:26:31.119Z,6.33
2017-10-01T17:28:58.566Z,9.37
2017-10-01T17:31:26.115Z,6.57
2017-10-01T17:33:53.576Z,7.33
2017-10-01T17:36:21.130Z,5.10
2017-10-01T17:38:48.602Z,4.03
2017-10-01T17:41:16.053Z,3.70
2017-10-01T17:43:43.525Z,6.20
2017-10-01T17:46:11.051Z,7.43
2017-10-01T17:48:38.513Z,9.13
2017-10-01T17:51:05.978Z,14.03
2017-10-01T17:53:33.447Z,5.67
2017-10-01T17:56:00.915Z,3.70
2017-10-01T17:58:28.924Z,4.20
2017-10-01T18:00:56.432Z,11.40
2017-10-01T18:03:23.963Z,7.47
2017-10-01T18:05:51.415Z,4.83
2017-10-01T18:08:18.888Z,15.83
2017-10-01T18:10:46.343Z,5.60
2017-10-01T18:13:13.811Z,4.77
2017-10-01T18:15:41.274Z,7.80
2017-10-01T18:18:08.805Z,8.80
2017-10-01T18:20:36.280Z,13.43
2017-10-01T18:23:03.743Z,8.20
2017-10-01T18:25:31.234Z,8.80
2017-10-01T18:27:58.689Z,6.20
2017-10-01T18:30:26.142Z,3.97
2017-10-01T18:32:54.563Z,4.93
2017-10-01T18:35:22.007Z,10.43
2017-10-01T18:37:49.475Z,4.13
2017-10-01T18:40:16.949Z,3.97
2017-10-01T18:42:44.426Z,11.63
2017-10-01T18:45:11.879Z,9.40
2017-10-01T18:47:39.370Z,9.13
2017-10-01T18:50:06.814Z,5.77
2017-10-01T18:52:34.265Z,5.67
2017-10-01T18:55:01.737Z,5.17
2017-10-01T18:57:29.183Z,4.67
2017-10-01T18:59:56.650Z,11.30
2017-10-01T19:02:24.107Z,7.20
2017-10-01T19:04:51.581Z,6.43
2017-10-01T19:07:19.067Z,5.20
2017-10-01T19:09:46.567Z,4.20
2017-10-01T19:12:14.023Z,11.50
2017-10-01T19:14:41.492Z,6.70
2017-10-01T19:17:09.448Z,5.17
2017-10-01T19:19:36.975Z,4.07
2017-10-01T19:22:04.424Z,5.10
2017-10-01T19:24:31.880Z,10.53
2017-10-01T19:26:59.423Z,3.90
2017-10-01T19:29:26.884Z,5.03
2017-10-01T19:31:54.439Z,5.00
2017-10-01T19:34:21.883Z,6.67
2017-10-01T19:36:49.356Z,11.50
2017-10-01T19:39:16.911Z,5.83
2017-10-01T19:41:44.395Z,6.37
2017-10-01T19:44:11.839Z,5.93
2017-10-01T19:46:39.327Z,4.13
2017-10-01T19:49:06.783Z,11.53
2017-10-01T19:51:34.304Z,4.60
2017-10-01T19:54:01.757Z,4.80
2017-10-01T19:56:29.222Z,4.70
2017-10-01T19:58:56.658Z,6.83
2017-10-01T20:01:24.155Z,3.73
2017-10-01T20:03:51.602Z,14.03
2017-10-01T20:06:19.146Z,4.43
2017-10-01T20:08:46.616Z,4.43
2017-10-01T20:11:14.156Z,7.03
2017-10-01T20:13:41.711Z,9.30
2017-10-01T20:16:09.157Z,11.70
2017-10-01T20:18:36.632Z,4.90
2017-10-01T20:21:04.215Z,2.90
2017-10-01T20:23:31.715Z,4.60
2017-10-01T20:25:59.194Z,5.07
2017-10-01T20:28:26.675Z,5.20
2017-10-01T20:30:54.123Z,7.60
2017-10-01T20:33:21.624Z,8.53
2017-10-01T20:35:49.066Z,6.13
2017-10-01T20:38:16.713Z,3.43
2017-10-01T20:40:44.163Z,7.93
2017-10-01T20:43:11.639Z,5.67
2017-10-01T20:45:39.081Z,4.37
2017-10-01T20:48:06.576Z,12.83
2017-10-01T20:50:34.027Z,5.30
2017-10-01T20:53:01.470Z,7.17
2017-10-01T20:55:28.994Z,5.23
2017-10-01T20:57:56.475Z,10.03
2017-10-01T21:00:23.959Z,4.83
2017-10-01T21:02:52.351Z,3.60
2017-10-01T21:05:19.813Z,5.97
2017-10-01T21:07:47.282Z,13.57
2017-10-01T21:10:14.762Z,3.30
2017-10-01T21:12:42.223Z,3.60
2017-10-01T21:15:09.761Z,4.93
2017-10-01T21:17:37.203Z,7.10
2017-10-01T21:20:04.679Z,9.70
2017-10-01T21:22:32.123Z,3.83
2017-10-01T21:24:59.586Z,9.80
2017-10-01T21:27:27.041Z,8.50
2017-10-01T21:29:54.629Z,6.20
2017-10-01T21:32:22.163Z,3.77
2017-10-01T21:34:49.719Z,4.83
2017-10-01T21:37:17.175Z,5.50
2017-10-01T21:39:44.654Z,3.90
2017-10-01T21:42:12.186Z,10.73
2017-10-01T21:44:39.647Z,6.53
2017-10-01T21:47:07.086Z,7.23
2017-10-01T21:49:34.667Z,7.33
2017-10-01T21:52:02.226Z,8.27
2017-10-01T21:54:29.691Z,11.03
2017-10-01T21:56:57.139Z,11.10
2017-10-01T21:59:24.587Z,14.03
2017-10-01T22:01:52.054Z,4.73
2017-10-01T22:04:19.494Z,5.80
2017-10-01T22:06:46.965Z,5.77
2017-10-01T22:09:14.420Z,10.20
2017-10-01T22:11:41.891Z,4.90
2017-10-01T22:14:09.353Z,12.20
2017-10-01T22:16:36.830Z,5.47
2017-10-01T22:19:04.294Z,11.40
2017-10-01T22:21:31.766Z,3.43
2017-10-01T22:23:59.227Z,4.53
2017-10-01T22:26:26.711Z,6.73
2017-10-01T22:28:54.178Z,5.57
2017-10-01T22:31:21.630Z,9.87
2017-10-01T22:33:49.191Z,4.70
2017-10-01T22:36:16.659Z,8.40
2017-10-01T22:38:44.141Z,5.10
2017-10-01T22:41:11.587Z,7.93
2017-10-01T22:43:39.072Z,6.43
2017-10-01T22:46:06.533Z,4.13
2017-10-01T22:48:34.012Z,12.43
2017-10-01T22:51:01.499Z,6.40
2017-10-01T22:53:28.971Z,5.97
2017-10-01T22:55:56.455Z,10.93
2017-10-01T22:58:23.935Z,8.17
2017-10-01T23:00:51.382Z,6.53
2017-10-01T23:03:18.832Z,7.30
2017-10-01T23:05:46.327Z,11.83
2017-10-01T23:08:13.799Z,10.03
2017-10-01T23:10:41.267Z,7.97
2017-10-01T23:13:08.715Z,10.57
2017-10-01T23:15:36.270Z,8.80
2017-10-01T23:18:03.723Z,7.50
2017-10-01T23:20:31.200Z,9.77
2017-10-01T23:22:58.641Z,8.53
2017-10-01T23:25:26.111Z,8.70
2017-10-01T23:27:53.554Z,10.03
2017-10-01T23:30:21.027Z,12.53
2017-10-01T23:32:48.486Z,10.63
2017-10-01T23:35:15.960Z,6.10
2017-10-01T23:37:43.398Z,5.40
2017-10-01T23:40:10.870Z,7.50
2017-10-01T23:42:38.324Z,5.60
2017-10-01T23:45:05.795Z,7.43
2017-10-01T23:47:33.250Z,4.87
2017-10-01T23:50:00.699Z,5.27
2017-10-01T23:52:28.166Z,4.90
2017-10-01T23:54:55.611Z,6.80
2017-10-01T23:57:23.105Z,6.23
2017-10-01T23:59:50.548Z,4.93
